createdAt,value
2018-12-06T00:00:08.449Z,6.23
2018-12-06T00:02:37.202Z,6.30
2018-12-06T00:05:06.588Z,6.30
2018-12-06T00:07:35.289Z,6.23
2018-12-06T00:10:04.636Z,6.25
2018-12-06T00:12:33.396Z,6.21
2018-12-06T00:15:28.547Z,6.29
2018-12-06T00:17:58.408Z,6.32
2018-12-06T00:20:28.207Z,6.40
2018-12-06T00:22:56.886Z,6.37
2018-12-06T00:25:25.750Z,6.39
2018-12-06T00:27:54.508Z,6.35
2018-12-06T00:30:43.480Z,6.32
2018-12-06T00:33:12.255Z,6.17
2018-12-06T00:35:40.948Z,6.11
2018-12-06T00:38:09.773Z,6.09
2018-12-06T00:40:38.636Z,6.20
2018-12-06T00:43:07.413Z,6.17
2018-12-06T00:45:36.461Z,6.20
2018-12-06T00:48:05.204Z,6.11
2018-12-06T00:50:33.966Z,6.08
2018-12-06T00:53:02.776Z,6.09
2018-12-06T00:55:31.971Z,6.11
2018-12-06T00:58:00.632Z,6.20
2018-12-06T01:00:29.500Z,6.22
2018-12-06T01:02:58.236Z,6.23
2018-12-06T01:05:27.016Z,6.18
2018-12-06T01:07:55.785Z,6.15
2018-12-06T01:10:24.750Z,6.09
2018-12-06T01:12:53.672Z,6.01
2018-12-06T01:15:22.485Z,6.08
2018-12-06T01:17:51.239Z,6.13
2018-12-06T01:20:19.915Z,6.08
2018-12-06T01:22:48.628Z,6.16
2018-12-06T01:25:17.303Z,6.06
2018-12-06T01:27:46.102Z,6.12
2018-12-06T01:30:14.974Z,6.13
2018-12-06T01:32:43.638Z,6.14
2018-12-06T01:35:12.329Z,6.18
2018-12-06T01:37:41.109Z,6.17
2018-12-06T01:40:09.966Z,6.14
2018-12-06T01:42:38.588Z,6.21
2018-12-06T01:45:07.569Z,6.27
2018-12-06T01:47:36.335Z,6.26
2018-12-06T01:50:05.657Z,6.30
2018-12-06T01:52:34.453Z,6.27
2018-12-06T01:55:03.232Z,6.27
2018-12-06T01:57:31.923Z,6.15
2018-12-06T02:00:00.854Z,6.23
2018-12-06T02:02:29.703Z,6.26
2018-12-06T02:04:58.453Z,6.31
2018-12-06T02:07:27.508Z,6.24
2018-12-06T02:09:56.274Z,6.24
2018-12-06T02:12:25.271Z,6.28
2018-12-06T02:14:54.100Z,6.31
2018-12-06T02:17:22.856Z,6.22
2018-12-06T02:19:51.692Z,6.24
2018-12-06T02:22:20.573Z,6.28
2018-12-06T02:24:49.253Z,6.27
2018-12-06T02:27:18.028Z,6.39
2018-12-06T02:29:51.804Z,6.34
2018-12-06T02:32:20.537Z,6.31
2018-12-06T02:34:49.217Z,6.34
2018-12-06T02:37:18.023Z,6.32
2018-12-06T02:39:46.721Z,6.26
2018-12-06T02:42:15.497Z,6.31
2018-12-06T02:44:44.192Z,6.31
2018-12-06T02:47:12.881Z,6.25
2018-12-06T02:49:41.607Z,6.30
2018-12-06T02:52:10.487Z,6.17
2018-12-06T02:54:39.203Z,6.23
2018-12-06T02:57:07.964Z,6.30
2018-12-06T02:59:36.756Z,6.31
2018-12-06T03:02:05.644Z,6.24
2018-12-06T03:04:34.387Z,6.26
2018-12-06T03:07:03.138Z,6.32
2018-12-06T03:09:31.920Z,6.31
2018-12-06T03:12:00.697Z,6.31
2018-12-06T03:14:29.652Z,6.23
2018-12-06T03:16:58.692Z,6.23
2018-12-06T03:19:27.553Z,6.34
2018-12-06T03:21:56.445Z,6.43
2018-12-06T03:24:25.169Z,6.42
2018-12-06T03:26:53.920Z,6.45
2018-12-06T03:29:22.772Z,6.56
2018-12-06T03:31:51.659Z,6.46
2018-12-06T03:34:20.457Z,6.52
2018-12-06T03:36:49.208Z,6.58
2018-12-06T03:39:17.957Z,6.67
2018-12-06T03:41:46.657Z,6.56
2018-12-06T03:44:15.470Z,6.61
2018-12-06T03:46:44.235Z,6.67
2018-12-06T03:49:12.904Z,6.70
2018-12-06T03:51:41.611Z,6.57
2018-12-06T03:54:10.322Z,6.59
2018-12-06T03:56:39.066Z,6.56
2018-12-06T03:59:07.853Z,6.65
2018-12-06T04:01:36.554Z,6.71
2018-12-06T04:04:05.395Z,6.67
2018-12-06T04:06:34.436Z,6.56
2018-12-06T04:09:04.695Z,6.64
2018-12-06T04:11:33.504Z,6.66
2018-12-06T04:14:02.402Z,6.67
2018-12-06T04:16:31.423Z,6.56
2018-12-06T04:19:00.105Z,6.59
2018-12-06T04:21:28.929Z,6.57
2018-12-06T04:23:58.639Z,6.63
2018-12-06T04:26:27.546Z,6.65
2018-12-06T04:28:56.352Z,6.58
2018-12-06T04:31:25.066Z,6.54
2018-12-06T04:33:53.825Z,6.54
2018-12-06T04:36:22.744Z,6.56
2018-12-06T04:38:51.543Z,6.65
2018-12-06T04:41:20.293Z,6.66
2018-12-06T04:43:49.115Z,6.73
2018-12-06T04:46:17.900Z,6.76
2018-12-06T04:48:46.632Z,6.66
2018-12-06T04:51:15.342Z,6.58
2018-12-06T04:53:44.109Z,6.60
2018-12-06T04:56:12.847Z,6.66
2018-12-06T04:58:41.733Z,6.50
2018-12-06T05:01:10.532Z,6.46
2018-12-06T05:03:39.221Z,6.55
2018-12-06T05:06:08.483Z,6.56
2018-12-06T05:08:37.199Z,6.57
2018-12-06T05:11:05.893Z,6.56
2018-12-06T05:13:34.759Z,6.60
2018-12-06T05:16:03.488Z,6.62
2018-12-06T05:18:32.395Z,6.58
2018-12-06T05:21:01.193Z,6.57
2018-12-06T05:23:29.952Z,6.60
2018-12-06T05:25:58.890Z,6.67
2018-12-06T05:28:27.736Z,6.68
2018-12-06T05:30:56.535Z,6.63
2018-12-06T05:33:25.281Z,6.63
2018-12-06T05:35:54.200Z,6.60
2018-12-06T05:38:22.878Z,6.66
2018-12-06T05:40:51.576Z,6.68
2018-12-06T05:43:20.380Z,6.68
2018-12-06T05:45:49.077Z,6.68
2018-12-06T05:48:17.905Z,6.75
2018-12-06T05:50:46.668Z,6.73
2018-12-06T05:53:15.434Z,6.83
2018-12-06T05:55:44.092Z,6.89
2018-12-06T05:58:13.018Z,7.02
2018-12-06T06:00:41.750Z,7.10
2018-12-06T06:03:10.457Z,7.11
2018-12-06T06:05:39.253Z,7.11
2018-12-06T06:08:08.189Z,7.21
2018-12-06T06:10:43.372Z,7.17
2018-12-06T06:13:12.209Z,7.19
2018-12-06T06:15:41.006Z,7.28
2018-12-06T06:18:09.887Z,7.29
2018-12-06T06:20:38.691Z,7.31
2018-12-06T06:23:07.431Z,7.35
2018-12-06T06:25:36.172Z,7.39
2018-12-06T06:28:04.938Z,7.39
2018-12-06T06:30:33.748Z,7.43
2018-12-06T06:33:02.556Z,7.46
2018-12-06T06:35:31.216Z,7.47
2018-12-06T06:37:59.987Z,7.44
2018-12-06T06:40:29.193Z,7.50
2018-12-06T06:42:57.895Z,7.48
2018-12-06T06:45:26.671Z,7.51
2018-12-06T06:47:55.604Z,7.54
2018-12-06T06:50:24.463Z,7.59
2018-12-06T06:52:53.298Z,7.63
2018-12-06T06:55:22.129Z,7.63
2018-12-06T06:57:50.875Z,7.65
2018-12-06T07:00:19.604Z,7.64
2018-12-06T07:02:48.521Z,7.65
2018-12-06T07:05:17.373Z,7.71
2018-12-06T07:07:46.170Z,7.71
2018-12-06T07:10:15.033Z,7.77
2018-12-06T07:12:43.797Z,7.77
2018-12-06T07:15:12.609Z,7.75
2018-12-06T07:17:42.015Z,7.81
2018-12-06T07:20:10.787Z,7.87
2018-12-06T07:22:39.894Z,7.84
2018-12-06T07:25:08.779Z,7.88
2018-12-06T07:27:37.502Z,7.87
2018-12-06T07:30:12.201Z,7.83
2018-12-06T07:32:37.843Z,7.85
2018-12-06T07:35:06.769Z,7.83
2018-12-06T07:37:35.535Z,7.82
2018-12-06T07:40:05.235Z,7.83
2018-12-06T07:42:34.028Z,7.92
2018-12-06T07:45:02.783Z,7.97
2018-12-06T07:47:31.668Z,8.01
2018-12-06T07:50:00.591Z,8.04
2018-12-06T07:52:29.326Z,8.00
2018-12-06T07:54:58.137Z,8.00
2018-12-06T07:57:26.869Z,8.04
2018-12-06T07:59:55.659Z,8.02
2018-12-06T08:02:24.426Z,8.07
2018-12-06T08:04:53.165Z,8.10
2018-12-06T08:07:21.937Z,8.09
2018-12-06T08:09:50.682Z,8.11
2018-12-06T08:12:19.431Z,8.04
2018-12-06T08:14:48.289Z,8.05
2018-12-06T08:17:17.218Z,8.10
2018-12-06T08:19:46.061Z,8.14
2018-12-06T08:22:14.820Z,8.14
2018-12-06T08:24:43.983Z,8.08
2018-12-06T08:27:12.840Z,8.01
2018-12-06T08:29:41.691Z,7.99
2018-12-06T08:32:10.599Z,7.93
2018-12-06T08:34:39.393Z,7.93
2018-12-06T08:37:08.285Z,7.93
2018-12-06T08:39:37.110Z,7.97
2018-12-06T08:42:05.856Z,7.95
2018-12-06T08:44:34.561Z,8.07
2018-12-06T08:47:03.395Z,8.04
2018-12-06T08:49:32.129Z,8.13
2018-12-06T08:52:01.789Z,8.26
2018-12-06T08:54:30.577Z,8.25
2018-12-06T08:56:59.406Z,8.31
2018-12-06T08:59:28.229Z,8.34
2018-12-06T09:01:57.188Z,8.40
2018-12-06T09:04:26.109Z,8.44
2018-12-06T09:06:54.813Z,8.35
2018-12-06T09:09:23.790Z,8.41
2018-12-06T09:11:52.656Z,8.47
2018-12-06T09:14:21.376Z,8.54
2018-12-06T09:16:50.183Z,8.53
2018-12-06T09:19:18.885Z,8.58
2018-12-06T09:21:48.336Z,8.59
2018-12-06T09:24:17.362Z,8.61
2018-12-06T09:26:47.781Z,8.59
2018-12-06T09:29:16.556Z,8.57
2018-12-06T09:31:45.477Z,8.61
2018-12-06T09:34:14.360Z,8.61
2018-12-06T09:36:43.207Z,8.68
2018-12-06T09:39:12.153Z,8.69
2018-12-06T09:41:40.986Z,8.73
2018-12-06T09:44:09.782Z,8.84
2018-12-06T09:46:38.709Z,8.93
2018-12-06T09:49:42.760Z,8.97
2018-12-06T09:52:12.225Z,8.97
2018-12-06T09:54:41.154Z,8.98
2018-12-06T09:57:10.505Z,9.02
2018-12-06T09:59:40.541Z,9.24
2018-12-06T10:02:09.287Z,9.21
2018-12-06T10:04:38.240Z,9.24
2018-12-06T10:07:07.232Z,9.29
2018-12-06T10:09:36.072Z,9.32
2018-12-06T10:12:04.973Z,9.36
2018-12-06T10:14:33.906Z,9.38
2018-12-06T10:17:02.661Z,9.25
2018-12-06T10:19:32.116Z,9.34
2018-12-06T10:22:01.951Z,9.39
2018-12-06T10:24:30.765Z,9.46
2018-12-06T10:26:59.689Z,9.46
2018-12-06T10:29:28.810Z,9.51
2018-12-06T10:31:57.522Z,9.53
2018-12-06T10:34:26.350Z,9.58
2018-12-06T10:36:55.271Z,9.69
2018-12-06T10:39:24.236Z,9.72
2018-12-06T10:41:52.985Z,9.59
2018-12-06T10:44:28.475Z,9.70
2018-12-06T10:46:57.221Z,9.76
2018-12-06T10:49:26.033Z,9.84
2018-12-06T10:51:54.975Z,9.80
2018-12-06T10:54:23.710Z,9.82
2018-12-06T10:56:52.511Z,9.82
2018-12-06T10:59:21.411Z,9.78
2018-12-06T11:02:58.031Z,9.69
2018-12-06T11:05:26.900Z,9.63
2018-12-06T11:07:56.543Z,9.67
2018-12-06T11:10:25.227Z,9.78
2018-12-06T11:12:54.063Z,9.88
2018-12-06T11:15:22.851Z,9.94
2018-12-06T11:17:51.604Z,9.95
2018-12-06T11:20:20.511Z,10.03
2018-12-06T11:22:49.256Z,10.11
2018-12-06T11:25:18.032Z,10.10
2018-12-06T11:27:47.056Z,10.11
2018-12-06T11:30:15.968Z,10.22
2018-12-06T11:32:44.915Z,10.31
2018-12-06T11:35:14.180Z,10.34
2018-12-06T11:37:43.018Z,10.35
2018-12-06T11:40:12.049Z,10.41
2018-12-06T11:42:41.341Z,10.49
2018-12-06T11:45:10.233Z,10.42
2018-12-06T11:47:39.120Z,10.51
2018-12-06T11:50:08.773Z,10.62
2018-12-06T11:52:37.731Z,10.68
2018-12-06T11:55:06.651Z,10.75
2018-12-06T11:57:35.562Z,10.80
2018-12-06T12:00:05.014Z,10.80
2018-12-06T12:02:34.640Z,10.81
2018-12-06T12:05:04.229Z,10.80
2018-12-06T12:07:33.029Z,10.78
2018-12-06T12:10:02.115Z,10.83
2018-12-06T12:12:31.086Z,10.84
2018-12-06T12:15:00.501Z,10.78
2018-12-06T12:17:29.313Z,10.82
2018-12-06T12:19:58.136Z,10.69
2018-12-06T12:22:27.377Z,10.64
2018-12-06T12:24:56.137Z,10.61
2018-12-06T12:27:24.952Z,10.62
2018-12-06T12:29:53.987Z,10.70
2018-12-06T12:32:22.735Z,10.73
2018-12-06T12:34:52.034Z,10.84
2018-12-06T12:37:20.822Z,10.70
2018-12-06T12:39:49.606Z,10.64
2018-12-06T12:42:18.423Z,10.75
2018-12-06T12:44:47.286Z,10.74
2018-12-06T12:47:16.014Z,10.71
2018-12-06T12:49:45.011Z,10.75
2018-12-06T12:52:13.733Z,10.71
2018-12-06T12:54:42.564Z,10.74
2018-12-06T12:57:11.610Z,10.72
2018-12-06T12:59:40.338Z,10.66
2018-12-06T13:02:09.773Z,10.80
2018-12-06T13:04:45.137Z,10.76
2018-12-06T13:07:14.063Z,10.72
2018-12-06T13:09:42.881Z,10.74
2018-12-06T13:12:12.198Z,10.74
2018-12-06T13:14:41.080Z,10.82
2018-12-06T13:17:09.951Z,10.79
2018-12-06T13:19:38.859Z,10.88
2018-12-06T13:22:07.586Z,10.84
2018-12-06T13:24:36.338Z,10.85
2018-12-06T13:27:07.056Z,10.81
2018-12-06T13:29:36.471Z,10.88
2018-12-06T13:32:14.288Z,10.86
2018-12-06T13:34:47.088Z,10.89
2018-12-06T13:37:16.777Z,10.97
2018-12-06T13:39:50.592Z,10.92
2018-12-06T13:42:24.684Z,10.93
2018-12-06T13:44:53.636Z,11.07
2018-12-06T13:47:22.690Z,10.99
2018-12-06T13:49:51.678Z,11.05
2018-12-06T13:52:20.826Z,11.14
2018-12-06T13:55:00.605Z,11.29
2018-12-06T13:57:34.718Z,11.33
2018-12-06T14:00:10.752Z,11.19
2018-12-06T14:02:39.693Z,11.23
2018-12-06T14:05:13.733Z,11.31
2018-12-06T14:07:49.656Z,11.27
2018-12-06T14:10:20.273Z,11.35
2018-12-06T14:12:49.232Z,11.41
2018-12-06T14:15:23.580Z,11.50
2018-12-06T14:17:55.220Z,11.54
2018-12-06T14:20:24.509Z,11.50
2018-12-06T14:22:54.044Z,11.37
2018-12-06T14:25:23.775Z,11.36
2018-12-06T14:27:52.762Z,11.48
2018-12-06T14:30:25.393Z,11.52
2018-12-06T14:32:56.755Z,11.35
2018-12-06T14:35:29.344Z,11.49
2018-12-06T14:38:01.092Z,11.48
2018-12-06T14:40:29.965Z,11.56
2018-12-06T14:42:58.969Z,11.62
2018-12-06T14:45:28.366Z,11.57
2018-12-06T14:47:57.253Z,11.62
2018-12-06T14:50:25.937Z,11.61
2018-12-06T14:52:54.883Z,11.65
2018-12-06T14:55:23.720Z,11.63
2018-12-06T14:57:52.625Z,11.62
2018-12-06T15:00:21.472Z,11.72
2018-12-06T15:02:50.204Z,11.64
2018-12-06T15:05:19.060Z,11.71
2018-12-06T15:07:47.933Z,11.74
2018-12-06T15:10:17.568Z,11.73
2018-12-06T15:12:46.365Z,11.76
2018-12-06T15:15:15.563Z,11.66
2018-12-06T15:17:44.392Z,11.77
2018-12-06T15:20:13.212Z,11.79
2018-12-06T15:22:42.185Z,11.70
2018-12-06T15:25:12.406Z,11.72
2018-12-06T15:27:42.453Z,11.65
2018-12-06T15:30:11.650Z,11.74
2018-12-06T15:32:40.961Z,11.73
2018-12-06T15:35:10.181Z,11.73
2018-12-06T15:37:39.096Z,11.84
2018-12-06T15:40:08.173Z,11.80
2018-12-06T15:42:37.054Z,11.89
2018-12-06T15:45:06.966Z,11.88
2018-12-06T15:47:35.812Z,11.82
2018-12-06T15:50:05.364Z,11.76
2018-12-06T15:52:34.452Z,11.74
2018-12-06T15:55:03.253Z,11.86
2018-12-06T15:57:32.449Z,11.78
2018-12-06T16:00:01.311Z,11.90
2018-12-06T16:02:30.130Z,11.93
2018-12-06T16:05:00.581Z,11.99
2018-12-06T16:07:29.811Z,12.02
2018-12-06T16:09:58.648Z,11.98
2018-12-06T16:12:31.942Z,11.95
2018-12-06T16:15:00.820Z,11.97
2018-12-06T16:17:29.622Z,11.98
2018-12-06T16:20:01.703Z,12.08
2018-12-06T16:22:30.449Z,12.10
2018-12-06T16:24:59.238Z,12.12
2018-12-06T16:27:28.065Z,12.11
2018-12-06T16:29:56.892Z,12.20
2018-12-06T16:32:25.791Z,12.16
2018-12-06T16:34:54.639Z,12.14
2018-12-06T16:37:23.709Z,12.22
2018-12-06T16:39:52.482Z,12.29
2018-12-06T16:42:21.514Z,12.33
2018-12-06T16:44:50.384Z,12.28
2018-12-06T16:47:19.156Z,12.25
2018-12-06T16:49:48.193Z,12.28
2018-12-06T16:52:17.107Z,12.32
2018-12-06T16:54:47.912Z,12.30
2018-12-06T16:57:17.593Z,12.30
2018-12-06T16:59:47.821Z,12.31
2018-12-06T17:02:16.814Z,12.26
2018-12-06T17:04:47.281Z,12.32
2018-12-06T17:07:16.052Z,12.34
2018-12-06T17:09:44.796Z,12.37
2018-12-06T17:12:13.725Z,12.40
2018-12-06T17:14:43.733Z,12.48
2018-12-06T17:17:13.118Z,12.34
2018-12-06T17:19:42.993Z,12.33
2018-12-06T17:22:12.667Z,12.34
2018-12-06T17:24:44.616Z,12.39
2018-12-06T17:27:13.586Z,12.40
2018-12-06T17:29:42.675Z,12.35
2018-12-06T17:32:11.862Z,12.31
2018-12-06T17:34:40.782Z,12.28
2018-12-06T17:37:09.621Z,12.32
2018-12-06T17:39:38.851Z,12.30
2018-12-06T17:42:07.630Z,12.39
2018-12-06T17:44:37.687Z,12.32
2018-12-06T17:47:06.900Z,12.29
2018-12-06T17:49:35.689Z,12.36
2018-12-06T17:52:04.684Z,12.36
2018-12-06T17:54:33.740Z,12.36
2018-12-06T17:57:03.281Z,12.43
2018-12-06T17:59:32.130Z,12.42
2018-12-06T18:02:01.069Z,12.36
2018-12-06T18:04:29.910Z,12.45
2018-12-06T18:06:58.620Z,12.49
2018-12-06T18:09:27.499Z,12.55
2018-12-06T18:11:56.336Z,12.53
2018-12-06T18:14:25.141Z,12.46
2018-12-06T18:16:54.011Z,12.45
2018-12-06T18:19:22.790Z,12.49
2018-12-06T18:21:51.592Z,12.47
2018-12-06T18:24:20.420Z,12.44
2018-12-06T18:26:49.173Z,12.42
2018-12-06T18:29:17.960Z,12.49
2018-12-06T18:31:46.950Z,12.51
2018-12-06T18:34:15.979Z,12.47
2018-12-06T18:36:47.683Z,12.44
2018-12-06T18:39:16.587Z,12.31
2018-12-06T18:41:45.416Z,12.37
2018-12-06T18:44:14.511Z,12.28
2018-12-06T18:46:43.837Z,12.34
2018-12-06T18:49:12.978Z,12.47
2018-12-06T18:51:41.864Z,12.54
2018-12-06T18:54:10.787Z,12.44
2018-12-06T18:56:39.797Z,12.38
2018-12-06T18:59:08.544Z,12.48
2018-12-06T19:01:37.441Z,12.45
2018-12-06T19:04:06.248Z,12.52
2018-12-06T19:06:43.261Z,12.59
2018-12-06T19:09:12.038Z,12.59
2018-12-06T19:11:41.333Z,12.55
2018-12-06T19:14:21.791Z,12.47
2018-12-06T19:16:48.353Z,12.55
2018-12-06T19:19:17.182Z,12.55
2018-12-06T19:21:45.951Z,12.61
2018-12-06T19:24:14.770Z,12.52
2018-12-06T19:26:43.566Z,12.53
2018-12-06T19:29:12.528Z,12.55
2018-12-06T19:31:41.455Z,12.45
2018-12-06T19:34:10.425Z,12.45
2018-12-06T19:36:39.237Z,12.30
2018-12-06T19:39:09.760Z,12.26
2018-12-06T19:41:39.376Z,12.17
2018-12-06T19:44:08.644Z,12.27
2018-12-06T19:46:37.432Z,12.41
2018-12-06T19:49:06.552Z,12.43
2018-12-06T19:51:35.350Z,12.47
2018-12-06T19:54:04.135Z,12.50
2018-12-06T19:56:33.840Z,12.47
2018-12-06T19:59:02.600Z,12.53
2018-12-06T20:01:31.449Z,12.57
2018-12-06T20:04:02.048Z,12.53
2018-12-06T20:06:31.013Z,12.57
2018-12-06T20:09:02.184Z,12.56
2018-12-06T20:11:31.216Z,12.55
2018-12-06T20:13:59.978Z,12.52
2018-12-06T20:16:28.920Z,12.56
2018-12-06T20:18:58.540Z,12.51
2018-12-06T20:21:27.303Z,12.47
2018-12-06T20:23:56.004Z,12.49
2018-12-06T20:26:25.029Z,12.49
2018-12-06T20:28:54.751Z,12.56
2018-12-06T20:31:24.125Z,12.52
2018-12-06T20:33:55.488Z,12.48
2018-12-06T20:36:25.070Z,12.41
2018-12-06T20:38:54.780Z,12.45
2018-12-06T20:41:26.168Z,12.46
2018-12-06T20:43:56.555Z,12.40
2018-12-06T20:46:26.547Z,12.45
2018-12-06T20:48:56.347Z,12.43
2018-12-06T20:51:25.640Z,12.43
2018-12-06T20:53:55.176Z,12.48
2018-12-06T20:56:26.082Z,12.48
2018-12-06T20:58:56.691Z,12.31
2018-12-06T21:01:27.934Z,12.28
2018-12-06T21:03:56.688Z,12.37
2018-12-06T21:06:26.488Z,12.41
2018-12-06T21:08:57.547Z,12.46
2018-12-06T21:11:28.313Z,12.49
2018-12-06T21:13:57.579Z,12.40
2018-12-06T21:16:27.439Z,12.38
2018-12-06T21:18:58.718Z,12.39
2018-12-06T21:21:30.642Z,12.35
2018-12-06T21:23:59.833Z,12.36
2018-12-06T21:26:29.762Z,12.49
2018-12-06T21:28:59.394Z,12.36
2018-12-06T21:31:30.295Z,12.38
2018-12-06T21:33:59.023Z,12.43
2018-12-06T21:36:28.983Z,12.35
2018-12-06T21:38:57.918Z,12.33
2018-12-06T21:41:26.955Z,12.30
2018-12-06T21:43:59.718Z,12.34
2018-12-06T21:46:29.189Z,12.35
2018-12-06T21:48:58.251Z,12.31
2018-12-06T21:51:28.502Z,12.34
2018-12-06T21:54:01.189Z,12.35
2018-12-06T21:56:34.267Z,12.38
2018-12-06T21:59:07.251Z,12.35
2018-12-06T22:01:36.325Z,12.39
2018-12-06T22:04:11.470Z,12.39
2018-12-06T22:06:42.180Z,12.46
2018-12-06T22:09:11.430Z,12.50
2018-12-06T22:11:41.110Z,12.48
2018-12-06T22:14:10.133Z,12.52
2018-12-06T22:16:39.354Z,12.49
2018-12-06T22:19:08.497Z,12.49
2018-12-06T22:21:37.589Z,12.55
2018-12-06T22:24:06.761Z,12.61
2018-12-06T22:26:36.631Z,12.62
2018-12-06T22:29:05.725Z,12.63
2018-12-06T22:31:35.993Z,12.68
2018-12-06T22:34:05.835Z,12.79
2018-12-06T22:36:34.831Z,12.75
2018-12-06T22:39:05.522Z,12.78
2018-12-06T22:41:34.493Z,12.72
2018-12-06T22:44:04.565Z,12.75
2018-12-06T22:46:34.426Z,12.76
2018-12-06T22:49:04.955Z,12.77
2018-12-06T22:51:34.548Z,12.56
2018-12-06T22:54:04.159Z,12.52
2018-12-06T22:56:34.015Z,12.65
2018-12-06T22:59:02.979Z,12.71
2018-12-06T23:01:37.115Z,12.60
2018-12-06T23:04:06.236Z,12.74
2018-12-06T23:06:35.205Z,12.62
2018-12-06T23:09:06.377Z,12.64
2018-12-06T23:11:35.163Z,12.67
2018-12-06T23:14:04.861Z,12.63
2018-12-06T23:16:34.154Z,12.65
2018-12-06T23:19:03.527Z,12.70
2018-12-06T23:21:32.322Z,12.70
2018-12-06T23:24:01.301Z,12.67
2018-12-06T23:26:30.088Z,12.66
2018-12-06T23:28:58.876Z,12.71
2018-12-06T23:31:27.912Z,12.62
2018-12-06T23:33:57.656Z,12.62
2018-12-06T23:36:27.493Z,12.65
2018-12-06T23:38:57.450Z,12.69
2018-12-06T23:41:27.488Z,12.74
2018-12-06T23:43:57.113Z,12.63
2018-12-06T23:46:27.625Z,12.75
2018-12-06T23:48:56.981Z,12.81
2018-12-06T23:51:36.356Z,12.83
2018-12-06T23:54:05.154Z,12.92
2018-12-06T23:56:34.182Z,12.96
